Paradise, Canada
Current Conditions -  °F | °C
As of 5:00 AM on Friday 19 Dec 2014 (Local Time) from CYQX Reporting Station
Drizzle Drizzle  
Wind Chill: 34°   Ceiling: 100
Heat Index: 37°   Visibility: 0.37mi
Dew Point: 37°   Wind: 5mph
Humidity: 100%   Direction: 30°NNE
Pressure: 29.33"   Gusts: NA
Location:  49.37°N, 55.33°W
Report Text: CYQX 190800Z 03004KT 020V080 3/8SM R03/3000FT/N R13/3000FT/N -DZ FG VV001 03/03 A2933 RMK FG8 PRESFR SLP939
Loading
Personal Weather Stations






























Interactive Weather Map New forecast layout! Learn more

10-Day Weather Forecast

Advertisements
Track Severe Weather on mobile